createdAt,value
2019-03-22T00:00:03.938Z,928.23
2019-03-22T00:00:16.923Z,928.21
2019-03-22T00:00:29.938Z,928.3
2019-03-22T00:00:42.986Z,928.39
2019-03-22T00:00:55.965Z,928.2
2019-03-22T00:01:08.995Z,928.27
2019-03-22T00:01:22.065Z,928.23
2019-03-22T00:01:35.053Z,928.27
2019-03-22T00:01:48.012Z,928.24
2019-03-22T00:02:00.989Z,928.24
2019-03-22T00:02:14.067Z,928.24
2019-03-22T00:02:27.078Z,928.24
2019-03-22T00:02:40.065Z,928.22
2019-03-22T00:02:53.184Z,928.27
2019-03-22T00:03:05.733Z,928.35
2019-03-22T00:03:18.299Z,928.33
2019-03-22T00:03:31.331Z,928.24
2019-03-22T00:03:44.383Z,928.27
2019-03-22T00:03:57.424Z,928.33
2019-03-22T00:04:10.471Z,928.21
2019-03-22T00:04:23.721Z,928.24
2019-03-22T00:04:36.720Z,928.26
2019-03-22T00:04:49.247Z,928.32
2019-03-22T00:05:02.255Z,928.24
2019-03-22T00:05:14.723Z,928.31
2019-03-22T00:05:27.759Z,928.24
2019-03-22T00:05:40.894Z,928.25
2019-03-22T00:05:53.960Z,928.2
2019-03-22T00:06:07.009Z,928.25
2019-03-22T00:06:20.049Z,928.2
2019-03-22T00:06:33.099Z,928.32
2019-03-22T00:06:46.066Z,928.3
2019-03-22T00:06:59.061Z,928.32
2019-03-22T00:07:12.076Z,928.29
2019-03-22T00:07:25.053Z,928.24
2019-03-22T00:07:38.058Z,928.28
2019-03-22T00:07:52.229Z,928.31
2019-03-22T00:08:05.269Z,928.31
2019-03-22T00:08:18.286Z,928.33
2019-03-22T00:08:31.355Z,928.26
2019-03-22T00:08:44.426Z,928.26
2019-03-22T00:08:57.039Z,928.29
2019-03-22T00:09:09.575Z,928.22
2019-03-22T00:09:22.598Z,928.36
2019-03-22T00:09:35.574Z,928.25
2019-03-22T00:09:48.575Z,928.3
2019-03-22T00:10:01.575Z,928.32
2019-03-22T00:10:14.611Z,928.26
2019-03-22T00:10:27.593Z,928.35
2019-03-22T00:10:40.596Z,928.3
2019-03-22T00:10:53.561Z,928.36
2019-03-22T00:11:06.532Z,928.34
2019-03-22T00:11:19.583Z,928.27
2019-03-22T00:11:32.615Z,928.28
2019-03-22T00:11:45.652Z,928.36
2019-03-22T00:11:58.609Z,928.33
2019-03-22T00:12:14.330Z,928.36
2019-03-22T00:12:27.337Z,928.37
2019-03-22T00:12:40.320Z,928.32
2019-03-22T00:12:53.358Z,928.31
2019-03-22T00:13:06.415Z,928.37
2019-03-22T00:13:19.448Z,928.34
2019-03-22T00:13:32.456Z,928.32
2019-03-22T00:13:45.038Z,928.32
2019-03-22T00:13:57.581Z,928.36
2019-03-22T00:14:10.620Z,928.34
2019-03-22T00:14:23.236Z,928.35
2019-03-22T00:14:38.114Z,928.37
2019-03-22T00:14:51.075Z,928.34
2019-03-22T00:15:04.302Z,928.39
2019-03-22T00:15:17.341Z,928.43
2019-03-22T00:15:30.274Z,928.4
2019-03-22T00:15:43.378Z,928.41
2019-03-22T00:15:56.387Z,928.37
2019-03-22T00:16:09.319Z,928.42
2019-03-22T00:16:22.332Z,928.42
2019-03-22T00:16:35.389Z,928.45
2019-03-22T00:16:47.944Z,928.43
2019-03-22T00:17:00.936Z,928.45
2019-03-22T00:17:13.899Z,928.43
2019-03-22T00:17:26.928Z,928.41
2019-03-22T00:17:39.984Z,928.45
2019-03-22T00:17:52.936Z,928.5
2019-03-22T00:18:06.015Z,928.53
2019-03-22T00:18:18.946Z,928.51
2019-03-22T00:18:31.984Z,928.47
2019-03-22T00:18:44.985Z,928.47
2019-03-22T00:18:58.053Z,928.46
2019-03-22T00:19:11.024Z,928.49
2019-03-22T00:19:24.740Z,928.5
2019-03-22T00:19:37.773Z,928.53
2019-03-22T00:19:50.827Z,928.51
2019-03-22T00:20:03.838Z,928.5
2019-03-22T00:20:16.906Z,928.51
2019-03-22T00:20:29.936Z,928.49
2019-03-22T00:20:43.019Z,928.45
2019-03-22T00:20:56.017Z,928.52
2019-03-22T00:21:09.012Z,928.56
2019-03-22T00:21:22.064Z,928.5
2019-03-22T00:21:34.727Z,928.49
2019-03-22T00:21:47.732Z,928.53
2019-03-22T00:22:00.846Z,928.45
2019-03-22T00:22:13.384Z,928.5
2019-03-22T00:22:26.463Z,928.48
2019-03-22T00:22:39.504Z,928.49
2019-03-22T00:22:52.501Z,928.5
2019-03-22T00:23:05.507Z,928.5
2019-03-22T00:23:18.497Z,928.53
2019-03-22T00:23:31.474Z,928.51
2019-03-22T00:23:44.047Z,928.55
2019-03-22T00:23:57.020Z,928.53
2019-03-22T00:24:10.036Z,928.52
2019-03-22T00:24:23.099Z,928.6
2019-03-22T00:24:36.181Z,928.48
2019-03-22T00:24:49.246Z,928.57
2019-03-22T00:25:02.319Z,928.5
2019-03-22T00:25:15.362Z,928.45
2019-03-22T00:25:27.870Z,928.48
2019-03-22T00:25:40.840Z,928.44
2019-03-22T00:25:53.846Z,928.45
2019-03-22T00:26:06.872Z,928.45
2019-03-22T00:26:19.927Z,928.48
2019-03-22T00:26:33.747Z,928.5
2019-03-22T00:26:46.858Z,928.43
2019-03-22T00:26:59.905Z,928.52
2019-03-22T00:27:23.431Z,928.44
2019-03-22T00:27:36.407Z,928.47
2019-03-22T00:27:49.326Z,928.53
2019-03-22T00:28:02.398Z,928.45
2019-03-22T00:28:15.377Z,928.5
2019-03-22T00:28:28.426Z,928.49
2019-03-22T00:28:41.448Z,928.47
2019-03-22T00:28:54.506Z,928.54
2019-03-22T00:29:07.490Z,928.47
2019-03-22T00:29:20.571Z,928.48
2019-03-22T00:29:33.783Z,928.43
2019-03-22T00:29:46.364Z,928.48
2019-03-22T00:29:59.435Z,928.45
2019-03-22T00:30:12.443Z,928.5
2019-03-22T00:30:25.491Z,928.47
2019-03-22T00:30:38.602Z,928.46
2019-03-22T00:30:51.563Z,928.46
2019-03-22T00:31:04.594Z,928.46
2019-03-22T00:31:17.596Z,928.49
2019-03-22T00:31:30.568Z,928.57
2019-03-22T00:31:43.549Z,928.52
2019-03-22T00:31:56.595Z,928.55
2019-03-22T00:32:09.552Z,928.55
2019-03-22T00:32:22.627Z,928.57
2019-03-22T00:32:35.692Z,928.58
2019-03-22T00:32:48.727Z,928.54
2019-03-22T00:33:04.207Z,928.55
2019-03-22T00:33:17.296Z,928.53
2019-03-22T00:33:30.287Z,928.55
2019-03-22T00:33:43.292Z,928.54
2019-03-22T00:33:56.321Z,928.55
2019-03-22T00:34:08.856Z,928.61
2019-03-22T00:34:21.906Z,928.52
2019-03-22T00:34:35.144Z,928.59
2019-03-22T00:34:48.164Z,928.54
2019-03-22T00:35:01.358Z,928.54
2019-03-22T00:35:14.423Z,928.53
2019-03-22T00:35:27.399Z,928.54
2019-03-22T00:35:40.488Z,928.54
2019-03-22T00:35:53.544Z,928.55
2019-03-22T00:36:06.563Z,928.61
2019-03-22T00:36:19.544Z,928.55
2019-03-22T00:36:32.530Z,928.59
2019-03-22T00:36:45.556Z,928.55
2019-03-22T00:36:58.475Z,928.59
2019-03-22T00:37:11.497Z,928.59
2019-03-22T00:37:24.553Z,928.57
2019-03-22T00:37:37.626Z,928.57
2019-03-22T00:37:50.651Z,928.52
2019-03-22T00:38:03.685Z,928.55
2019-03-22T00:38:16.677Z,928.59
2019-03-22T00:38:29.710Z,928.57
2019-03-22T00:38:42.682Z,928.58
2019-03-22T00:38:55.632Z,928.64
2019-03-22T00:39:08.610Z,928.6
2019-03-22T00:39:21.630Z,928.56
2019-03-22T00:39:34.665Z,928.61
2019-03-22T00:39:47.672Z,928.61
2019-03-22T00:40:00.673Z,928.59
2019-03-22T00:40:13.731Z,928.56
2019-03-22T00:40:26.723Z,928.52
2019-03-22T00:40:39.774Z,928.58
2019-03-22T00:40:52.315Z,928.6
2019-03-22T00:41:05.347Z,928.57
2019-03-22T00:41:17.934Z,928.62
2019-03-22T00:41:30.995Z,928.62
2019-03-22T00:41:43.979Z,928.63
2019-03-22T00:41:56.977Z,928.6
2019-03-22T00:42:10.004Z,928.57
2019-03-22T00:42:22.947Z,928.6
2019-03-22T00:42:35.991Z,928.57
2019-03-22T00:42:49.014Z,928.59
2019-03-22T00:43:01.595Z,928.57
2019-03-22T00:43:14.630Z,928.62
2019-03-22T00:43:27.661Z,928.62
2019-03-22T00:43:40.626Z,928.6
2019-03-22T00:43:53.667Z,928.64
2019-03-22T00:44:06.173Z,928.69
2019-03-22T00:44:19.216Z,928.68
2019-03-22T00:44:32.234Z,928.68
2019-03-22T00:44:45.291Z,928.65
2019-03-22T00:44:58.353Z,928.68
2019-03-22T00:45:11.384Z,928.72
2019-03-22T00:45:24.383Z,928.7
2019-03-22T00:45:37.364Z,928.66
2019-03-22T00:45:50.401Z,928.71
2019-03-22T00:46:03.392Z,928.65
2019-03-22T00:46:16.470Z,928.66
2019-03-22T00:46:29.501Z,928.7
2019-03-22T00:46:42.451Z,928.72
2019-03-22T00:46:55.434Z,928.68
2019-03-22T00:47:08.477Z,928.62
2019-03-22T00:47:21.473Z,928.68
2019-03-22T00:47:34.494Z,928.64
2019-03-22T00:47:47.537Z,928.67
2019-03-22T00:48:00.566Z,928.69
2019-03-22T00:48:13.544Z,928.74
2019-03-22T00:48:28.974Z,928.71
2019-03-22T00:48:41.938Z,928.72
2019-03-22T00:48:54.887Z,928.66
2019-03-22T00:49:07.898Z,928.65
2019-03-22T00:49:20.902Z,928.67
2019-03-22T00:49:33.925Z,928.66
2019-03-22T00:49:47.731Z,928.67
2019-03-22T00:50:00.683Z,928.75
2019-03-22T00:50:13.254Z,928.67
2019-03-22T00:50:26.279Z,928.65
2019-03-22T00:50:39.306Z,928.72
2019-03-22T00:50:52.405Z,928.7
2019-03-22T00:51:05.506Z,928.76
2019-03-22T00:51:18.511Z,928.68
2019-03-22T00:51:31.571Z,928.64
2019-03-22T00:51:44.657Z,928.67
2019-03-22T00:51:57.632Z,928.69
2019-03-22T00:52:10.563Z,928.67
2019-03-22T00:52:23.574Z,928.64
2019-03-22T00:52:36.617Z,928.64
2019-03-22T00:52:49.580Z,928.66
2019-03-22T00:53:02.608Z,928.68
2019-03-22T00:53:15.567Z,928.63
2019-03-22T00:53:28.529Z,928.61
2019-03-22T00:53:41.510Z,928.6
2019-03-22T00:53:54.501Z,928.69
2019-03-22T00:54:07.493Z,928.69
2019-03-22T00:54:20.546Z,928.63
2019-03-22T00:54:33.547Z,928.65
2019-03-22T00:54:46.523Z,928.67
2019-03-22T00:54:59.522Z,928.64
2019-03-22T00:55:12.622Z,928.66
2019-03-22T00:55:25.702Z,928.65
2019-03-22T00:55:38.784Z,928.65
2019-03-22T00:55:51.777Z,928.65
2019-03-22T00:56:04.747Z,928.67
2019-03-22T00:56:17.785Z,928.65
2019-03-22T00:56:30.728Z,928.67
2019-03-22T00:56:43.733Z,928.63
2019-03-22T00:56:56.768Z,928.66
2019-03-22T00:57:09.791Z,928.64
2019-03-22T00:57:32.438Z,928.67
2019-03-22T00:57:45.483Z,928.65
2019-03-22T00:57:58.472Z,928.7
2019-03-22T00:58:11.470Z,928.7
2019-03-22T00:58:24.388Z,928.69
2019-03-22T00:58:37.452Z,928.67
2019-03-22T00:58:50.477Z,928.71
2019-03-22T00:59:03.490Z,928.65
2019-03-22T00:59:16.519Z,928.7
2019-03-22T00:59:29.566Z,928.74
2019-03-22T00:59:42.696Z,928.68
2019-03-22T00:59:55.733Z,928.72
2019-03-22T01:00:08.792Z,928.71
2019-03-22T01:00:21.896Z,928.68
2019-03-22T01:00:34.897Z,928.71
2019-03-22T01:00:47.981Z,928.72
2019-03-22T01:01:02.591Z,928.74
2019-03-22T01:01:15.573Z,928.7
2019-03-22T01:01:28.565Z,928.73
2019-03-22T01:01:41.570Z,928.72
2019-03-22T01:01:54.533Z,928.7
2019-03-22T01:02:07.505Z,928.71
2019-03-22T01:02:20.438Z,928.72
2019-03-22T01:02:33.398Z,928.73
2019-03-22T01:02:46.405Z,928.71
2019-03-22T01:02:59.443Z,928.75
2019-03-22T01:03:12.388Z,928.73
2019-03-22T01:03:24.873Z,928.69
2019-03-22T01:03:37.971Z,928.69
2019-03-22T01:03:50.956Z,928.7
2019-03-22T01:04:03.952Z,928.69
2019-03-22T01:04:16.439Z,928.73
2019-03-22T01:04:28.960Z,928.7
2019-03-22T01:04:41.954Z,928.73
2019-03-22T01:04:55.221Z,928.71
2019-03-22T01:05:08.172Z,928.72
2019-03-22T01:05:21.237Z,928.69
2019-03-22T01:05:34.253Z,928.74
2019-03-22T01:05:47.255Z,928.71
2019-03-22T01:06:00.307Z,928.73
2019-03-22T01:06:13.343Z,928.77
2019-03-22T01:06:26.364Z,928.72
2019-03-22T01:06:39.384Z,928.7
2019-03-22T01:06:52.335Z,928.71
2019-03-22T01:07:05.333Z,928.74
2019-03-22T01:07:18.347Z,928.76
2019-03-22T01:07:31.372Z,928.73
2019-03-22T01:07:44.392Z,928.72
2019-03-22T01:07:57.452Z,928.78
2019-03-22T01:08:10.465Z,928.74
2019-03-22T01:08:23.458Z,928.7
2019-03-22T01:08:36.489Z,928.75
2019-03-22T01:08:49.536Z,928.73
2019-03-22T01:09:02.452Z,928.74
2019-03-22T01:09:15.476Z,928.7
2019-03-22T01:09:28.446Z,928.74
2019-03-22T01:09:41.439Z,928.71
2019-03-22T01:09:54.471Z,928.73
2019-03-22T01:10:07.483Z,928.73
2019-03-22T01:10:20.109Z,928.71
2019-03-22T01:10:33.151Z,928.77
2019-03-22T01:10:46.245Z,928.75
2019-03-22T01:10:59.301Z,928.74
2019-03-22T01:11:12.398Z,928.74
2019-03-22T01:11:25.474Z,928.72
2019-03-22T01:11:38.462Z,928.75
2019-03-22T01:11:51.465Z,928.72
2019-03-22T01:12:04.531Z,928.79
2019-03-22T01:12:17.471Z,928.78
2019-03-22T01:12:30.461Z,928.79
2019-03-22T01:12:43.450Z,928.69
2019-03-22T01:12:56.493Z,928.7
2019-03-22T01:13:09.507Z,928.76
2019-03-22T01:13:22.548Z,928.72
2019-03-22T01:13:35.514Z,928.76
2019-03-22T01:13:48.111Z,928.74
2019-03-22T01:14:00.657Z,928.74
2019-03-22T01:14:13.683Z,928.73
2019-03-22T01:14:26.233Z,928.72
2019-03-22T01:14:39.156Z,928.76
2019-03-22T01:14:52.160Z,928.77
2019-03-22T01:15:05.145Z,928.79
2019-03-22T01:15:18.141Z,928.79
2019-03-22T01:15:31.181Z,928.81
2019-03-22T01:15:44.241Z,928.78
2019-03-22T01:15:57.141Z,928.8
2019-03-22T01:16:10.201Z,928.79
2019-03-22T01:16:23.277Z,928.73
2019-03-22T01:16:36.358Z,928.75
2019-03-22T01:16:49.379Z,928.79
2019-03-22T01:17:02.445Z,928.8
2019-03-22T01:17:15.418Z,928.79
2019-03-22T01:17:27.910Z,928.79
2019-03-22T01:17:40.849Z,928.76
2019-03-22T01:17:53.901Z,928.79
2019-03-22T01:18:06.518Z,928.79
2019-03-22T01:18:19.557Z,928.78
2019-03-22T01:18:32.572Z,928.81
2019-03-22T01:18:45.586Z,928.76
2019-03-22T01:18:58.632Z,928.82
2019-03-22T01:19:11.677Z,928.75
2019-03-22T01:19:24.715Z,928.79
2019-03-22T01:19:37.780Z,928.74
2019-03-22T01:19:51.559Z,928.76
2019-03-22T01:20:04.471Z,928.72
2019-03-22T01:20:17.511Z,928.75
2019-03-22T01:20:30.562Z,928.77
2019-03-22T01:20:43.497Z,928.78
2019-03-22T01:20:56.474Z,928.75
2019-03-22T01:21:09.478Z,928.76
2019-03-22T01:21:22.473Z,928.75
2019-03-22T01:21:35.521Z,928.77
2019-03-22T01:21:48.528Z,928.72
2019-03-22T01:22:01.500Z,928.77
2019-03-22T01:22:14.559Z,928.76
2019-03-22T01:22:27.680Z,928.77
2019-03-22T01:22:40.695Z,928.74
2019-03-22T01:22:53.750Z,928.76
2019-03-22T01:23:06.680Z,928.78
2019-03-22T01:23:19.696Z,928.74
2019-03-22T01:23:32.683Z,928.74
2019-03-22T01:23:45.270Z,928.74
2019-03-22T01:24:01.027Z,928.79
2019-03-22T01:24:14.074Z,928.73
2019-03-22T01:24:27.141Z,928.74
2019-03-22T01:24:40.168Z,928.78
2019-03-22T01:24:53.189Z,928.74
2019-03-22T01:25:06.184Z,928.77
2019-03-22T01:25:18.777Z,928.79
2019-03-22T01:25:31.762Z,928.78
2019-03-22T01:25:44.755Z,928.79
2019-03-22T01:25:57.821Z,928.8
2019-03-22T01:26:10.836Z,928.76
2019-03-22T01:26:23.822Z,928.76
2019-03-22T01:26:36.811Z,928.78
2019-03-22T01:26:49.816Z,928.76
2019-03-22T01:27:02.856Z,928.76
2019-03-22T01:27:15.906Z,928.74
2019-03-22T01:27:39.450Z,928.76
2019-03-22T01:27:52.843Z,928.78
2019-03-22T01:28:05.835Z,928.75
2019-03-22T01:28:18.845Z,928.74
2019-03-22T01:28:31.950Z,928.75
2019-03-22T01:28:44.990Z,928.8
2019-03-22T01:28:57.943Z,928.76
2019-03-22T01:29:11.034Z,928.75
2019-03-22T01:29:24.058Z,928.75
2019-03-22T01:29:37.163Z,928.76
2019-03-22T01:29:50.153Z,928.74
2019-03-22T01:30:03.320Z,928.72
2019-03-22T01:30:16.413Z,928.72
2019-03-22T01:30:29.431Z,928.71
2019-03-22T01:30:42.510Z,928.73
2019-03-22T01:30:55.571Z,928.75
2019-03-22T01:31:08.543Z,928.71
2019-03-22T01:31:21.608Z,928.72
2019-03-22T01:31:34.711Z,928.69
2019-03-22T01:31:47.714Z,928.73
2019-03-22T01:32:00.703Z,928.72
2019-03-22T01:32:13.656Z,928.71
2019-03-22T01:32:26.640Z,928.72
2019-03-22T01:32:39.682Z,928.78
2019-03-22T01:32:52.692Z,928.71
2019-03-22T01:33:05.709Z,928.69
2019-03-22T01:33:18.695Z,928.71
2019-03-22T01:33:31.753Z,928.74
2019-03-22T01:33:44.803Z,928.75
2019-03-22T01:33:57.848Z,928.73
2019-03-22T01:34:10.355Z,928.75
2019-03-22T01:34:23.321Z,928.74
2019-03-22T01:34:35.935Z,928.7
2019-03-22T01:34:48.927Z,928.72
2019-03-22T01:35:02.215Z,928.74
2019-03-22T01:35:15.207Z,928.7
2019-03-22T01:35:28.291Z,928.75
2019-03-22T01:35:41.384Z,928.73
2019-03-22T01:35:54.398Z,928.73
2019-03-22T01:36:07.379Z,928.71
2019-03-22T01:36:20.353Z,928.76
2019-03-22T01:36:33.298Z,928.72
2019-03-22T01:36:46.318Z,928.73
2019-03-22T01:36:59.311Z,928.7
2019-03-22T01:37:12.352Z,928.71
2019-03-22T01:37:25.340Z,928.71
2019-03-22T01:37:38.301Z,928.7
2019-03-22T01:37:51.287Z,928.71
2019-03-22T01:38:04.269Z,928.71
2019-03-22T01:38:17.201Z,928.73
2019-03-22T01:38:30.184Z,928.71
2019-03-22T01:38:43.262Z,928.69
2019-03-22T01:38:56.243Z,928.71
2019-03-22T01:39:09.228Z,928.68
2019-03-22T01:39:22.153Z,928.69
2019-03-22T01:39:35.099Z,928.7
2019-03-22T01:39:48.023Z,928.71
2019-03-22T01:40:01.009Z,928.71
2019-03-22T01:40:13.947Z,928.73
2019-03-22T01:40:26.940Z,928.65
2019-03-22T01:40:39.915Z,928.68
2019-03-22T01:40:52.834Z,928.69
2019-03-22T01:41:05.836Z,928.67
2019-03-22T01:41:18.813Z,928.68
2019-03-22T01:41:31.884Z,928.68
2019-03-22T01:41:44.917Z,928.68
2019-03-22T01:41:57.945Z,928.68
2019-03-22T01:42:10.983Z,928.69
2019-03-22T01:42:24.056Z,928.65
2019-03-22T01:42:37.072Z,928.68
2019-03-22T01:42:50.093Z,928.72
2019-03-22T01:43:03.109Z,928.7
2019-03-22T01:43:15.599Z,928.67
2019-03-22T01:43:28.182Z,928.65
2019-03-22T01:43:41.205Z,928.69
2019-03-22T01:43:54.227Z,928.71
2019-03-22T01:44:07.162Z,928.65
2019-03-22T01:44:20.130Z,928.68
2019-03-22T01:44:33.109Z,928.69
2019-03-22T01:44:46.060Z,928.65
2019-03-22T01:44:59.066Z,928.67
2019-03-22T01:45:12.084Z,928.66
2019-03-22T01:45:25.104Z,928.66
2019-03-22T01:45:38.134Z,928.66
2019-03-22T01:45:51.074Z,928.64
2019-03-22T01:46:04.125Z,928.65
2019-03-22T01:46:17.132Z,928.67
2019-03-22T01:46:30.124Z,928.66
2019-03-22T01:46:43.121Z,928.64
2019-03-22T01:46:56.140Z,928.67
2019-03-22T01:47:09.175Z,928.66
2019-03-22T01:47:22.238Z,928.6
2019-03-22T01:47:35.265Z,928.61
2019-03-22T01:47:48.322Z,928.63
2019-03-22T01:48:01.304Z,928.63
2019-03-22T01:48:14.258Z,928.65
2019-03-22T01:48:27.289Z,928.62
2019-03-22T01:48:40.274Z,928.69
2019-03-22T01:48:53.209Z,928.67
2019-03-22T01:49:06.264Z,928.62
2019-03-22T01:49:18.827Z,928.6
2019-03-22T01:49:31.779Z,928.59
2019-03-22T01:49:44.865Z,928.65
2019-03-22T01:49:57.916Z,928.64
2019-03-22T01:50:11.642Z,928.64
2019-03-22T01:50:24.717Z,928.61
2019-03-22T01:50:37.731Z,928.61
2019-03-22T01:50:50.817Z,928.64
2019-03-22T01:51:03.822Z,928.64
2019-03-22T01:51:16.796Z,928.6
2019-03-22T01:51:29.887Z,928.61
2019-03-22T01:51:42.936Z,928.57
2019-03-22T01:51:55.972Z,928.55
2019-03-22T01:52:08.993Z,928.58
2019-03-22T01:52:22.091Z,928.62
2019-03-22T01:52:35.085Z,928.59
2019-03-22T01:52:48.028Z,928.55
2019-03-22T01:53:01.018Z,928.58
2019-03-22T01:53:13.532Z,928.54
2019-03-22T01:53:26.439Z,928.56
2019-03-22T01:53:39.511Z,928.55
2019-03-22T01:53:52.525Z,928.58
2019-03-22T01:54:05.505Z,928.57
2019-03-22T01:54:18.565Z,928.62
2019-03-22T01:54:31.563Z,928.57
2019-03-22T01:54:44.587Z,928.56
2019-03-22T01:54:57.606Z,928.57
2019-03-22T01:55:10.653Z,928.54
2019-03-22T01:55:23.709Z,928.53
2019-03-22T01:55:36.758Z,928.54
2019-03-22T01:55:49.761Z,928.54
2019-03-22T01:56:02.796Z,928.51
2019-03-22T01:56:15.352Z,928.56
2019-03-22T01:56:28.410Z,928.54
2019-03-22T01:56:41.376Z,928.55
2019-03-22T01:56:54.356Z,928.54
2019-03-22T01:57:07.386Z,928.54
2019-03-22T01:57:20.354Z,928.53
2019-03-22T01:57:33.391Z,928.51
2019-03-22T01:57:57.194Z,928.57
2019-03-22T01:58:10.224Z,928.56
2019-03-22T01:58:23.169Z,928.56
2019-03-22T01:58:36.177Z,928.56
2019-03-22T01:58:49.161Z,928.57
2019-03-22T01:59:01.679Z,928.57
2019-03-22T01:59:14.681Z,928.56
2019-03-22T01:59:27.759Z,928.55
2019-03-22T01:59:40.742Z,928.51
2019-03-22T01:59:53.729Z,928.55
2019-03-22T02:00:06.942Z,928.52
2019-03-22T02:00:19.540Z,928.54
2019-03-22T02:00:32.546Z,928.5
2019-03-22T02:00:45.547Z,928.52
2019-03-22T02:00:58.099Z,928.53
2019-03-22T02:01:11.110Z,928.54
2019-03-22T02:01:24.182Z,928.49
2019-03-22T02:01:37.254Z,928.52
2019-03-22T02:01:50.359Z,928.51
2019-03-22T02:02:03.311Z,928.49
2019-03-22T02:02:16.271Z,928.52
2019-03-22T02:02:29.287Z,928.53
2019-03-22T02:02:42.310Z,928.49
2019-03-22T02:02:55.298Z,928.54
2019-03-22T02:03:08.303Z,928.51
2019-03-22T02:03:21.296Z,928.49
2019-03-22T02:03:34.212Z,928.5
2019-03-22T02:03:47.191Z,928.5
2019-03-22T02:04:00.146Z,928.48
2019-03-22T02:04:13.199Z,928.5
2019-03-22T02:04:26.165Z,928.5
2019-03-22T02:04:39.222Z,928.5
2019-03-22T02:04:52.198Z,928.47
2019-03-22T02:05:05.141Z,928.5
2019-03-22T02:05:18.862Z,928.47
2019-03-22T02:05:31.954Z,928.47
2019-03-22T02:05:45.025Z,928.49
2019-03-22T02:05:58.083Z,928.49
2019-03-22T02:06:11.028Z,928.45
2019-03-22T02:06:23.988Z,928.5
2019-03-22T02:06:36.494Z,928.49
2019-03-22T02:06:49.488Z,928.47
2019-03-22T02:07:02.452Z,928.46
2019-03-22T02:07:15.482Z,928.46
2019-03-22T02:07:28.458Z,928.47
2019-03-22T02:07:41.480Z,928.46
2019-03-22T02:07:54.549Z,928.47
2019-03-22T02:08:07.063Z,928.44
2019-03-22T02:08:20.063Z,928.45
2019-03-22T02:08:33.038Z,928.45
2019-03-22T02:08:46.098Z,928.46
2019-03-22T02:08:59.156Z,928.49
2019-03-22T02:09:12.215Z,928.48
2019-03-22T02:09:25.248Z,928.46
2019-03-22T02:09:38.354Z,928.48
2019-03-22T02:09:51.386Z,928.46
2019-03-22T02:10:04.378Z,928.45
2019-03-22T02:10:17.335Z,928.44
2019-03-22T02:10:30.375Z,928.44
2019-03-22T02:10:43.354Z,928.42
2019-03-22T02:10:56.413Z,928.47
2019-03-22T02:11:09.438Z,928.44
2019-03-22T02:11:22.394Z,928.46
2019-03-22T02:11:35.437Z,928.44
2019-03-22T02:11:48.466Z,928.46
2019-03-22T02:12:01.527Z,928.44
2019-03-22T02:12:14.456Z,928.43
2019-03-22T02:12:27.421Z,928.45
2019-03-22T02:12:40.385Z,928.45
2019-03-22T02:12:53.437Z,928.44
2019-03-22T02:13:06.432Z,928.45
2019-03-22T02:13:21.858Z,928.46
2019-03-22T02:13:34.877Z,928.48
2019-03-22T02:13:47.914Z,928.42
2019-03-22T02:14:00.974Z,928.41
2019-03-22T02:14:13.954Z,928.42
2019-03-22T02:14:26.909Z,928.44
2019-03-22T02:14:39.877Z,928.43
2019-03-22T02:14:52.945Z,928.41
2019-03-22T02:15:05.979Z,928.39
2019-03-22T02:15:19.063Z,928.41
2019-03-22T02:15:32.094Z,928.43
2019-03-22T02:15:45.111Z,928.43
2019-03-22T02:15:58.158Z,928.43
2019-03-22T02:16:11.057Z,928.42
2019-03-22T02:16:23.559Z,928.39
2019-03-22T02:16:36.081Z,928.4
2019-03-22T02:16:49.025Z,928.41
2019-03-22T02:17:02.071Z,928.43
2019-03-22T02:17:15.116Z,928.4
2019-03-22T02:17:28.139Z,928.42
2019-03-22T02:17:41.130Z,928.38
2019-03-22T02:17:54.181Z,928.39
2019-03-22T02:18:07.177Z,928.41
2019-03-22T02:18:20.209Z,928.39
2019-03-22T02:18:33.205Z,928.38
2019-03-22T02:18:46.257Z,928.41
2019-03-22T02:18:59.337Z,928.39
2019-03-22T02:19:12.349Z,928.41
2019-03-22T02:19:25.298Z,928.4
2019-03-22T02:19:37.834Z,928.4
2019-03-22T02:19:50.828Z,928.4
2019-03-22T02:20:03.817Z,928.36
2019-03-22T02:20:17.636Z,928.39
2019-03-22T02:20:30.577Z,928.39
2019-03-22T02:20:43.629Z,928.39
2019-03-22T02:20:56.156Z,928.35
2019-03-22T02:21:09.162Z,928.36
2019-03-22T02:21:22.178Z,928.38
2019-03-22T02:21:35.144Z,928.34
2019-03-22T02:21:48.169Z,928.38
2019-03-22T02:22:01.322Z,928.36
2019-03-22T02:22:14.405Z,928.37
2019-03-22T02:22:27.484Z,928.39
2019-03-22T02:22:40.512Z,928.37
2019-03-22T02:22:53.544Z,928.38
2019-03-22T02:23:06.574Z,928.35
2019-03-22T02:23:19.532Z,928.39
2019-03-22T02:23:32.514Z,928.37
2019-03-22T02:23:45.476Z,928.35
2019-03-22T02:23:59.296Z,928.35
2019-03-22T02:24:12.287Z,928.31
2019-03-22T02:24:25.290Z,928.36
2019-03-22T02:24:38.302Z,928.3
2019-03-22T02:24:51.287Z,928.35
2019-03-22T02:25:04.405Z,928.37
2019-03-22T02:25:17.296Z,928.35
2019-03-22T02:25:30.350Z,928.39
2019-03-22T02:25:42.965Z,928.38
2019-03-22T02:25:55.953Z,928.33
2019-03-22T02:26:08.967Z,928.39
2019-03-22T02:26:21.943Z,928.34
2019-03-22T02:26:34.965Z,928.35
2019-03-22T02:26:47.989Z,928.36
2019-03-22T02:27:01.064Z,928.35
2019-03-22T02:27:14.099Z,928.38
2019-03-22T02:27:27.126Z,928.34
2019-03-22T02:27:40.070Z,928.37
2019-03-22T02:28:04.815Z,928.34
2019-03-22T02:28:17.876Z,928.37
2019-03-22T02:28:30.932Z,928.36
2019-03-22T02:28:43.921Z,928.33
2019-03-22T02:28:56.945Z,928.38
2019-03-22T02:29:09.965Z,928.37
2019-03-22T02:29:22.946Z,928.37
2019-03-22T02:29:35.970Z,928.41
2019-03-22T02:29:51.569Z,928.35
2019-03-22T02:30:04.636Z,928.38
2019-03-22T02:30:17.868Z,928.38
2019-03-22T02:30:30.902Z,928.37
2019-03-22T02:30:43.969Z,928.39
2019-03-22T02:30:56.998Z,928.36
2019-03-22T02:31:10.045Z,928.44
2019-03-22T02:31:23.085Z,928.37
2019-03-22T02:31:36.082Z,928.36
2019-03-22T02:31:49.086Z,928.36
2019-03-22T02:32:02.113Z,928.39
2019-03-22T02:32:15.225Z,928.38
2019-03-22T02:32:28.212Z,928.4
2019-03-22T02:32:41.239Z,928.37
2019-03-22T02:32:54.826Z,928.37
2019-03-22T02:33:07.436Z,928.35
2019-03-22T02:33:20.517Z,928.36
2019-03-22T02:33:33.600Z,928.39
2019-03-22T02:33:46.562Z,928.37
2019-03-22T02:33:59.649Z,928.38
2019-03-22T02:34:12.675Z,928.36
2019-03-22T02:34:25.706Z,928.39
2019-03-22T02:34:38.745Z,928.37
2019-03-22T02:34:51.783Z,928.38
2019-03-22T02:35:04.766Z,928.36
2019-03-22T02:35:35.075Z,928.41
2019-03-22T02:35:48.114Z,928.41
2019-03-22T02:36:01.196Z,928.39
2019-03-22T02:36:14.242Z,928.37
2019-03-22T02:36:27.257Z,928.36
2019-03-22T02:36:40.326Z,928.35
2019-03-22T02:36:53.288Z,928.29
2019-03-22T02:37:06.388Z,928.33
2019-03-22T02:37:19.465Z,928.34
2019-03-22T02:37:32.490Z,928.37
2019-03-22T02:37:45.603Z,928.28
2019-03-22T02:37:58.649Z,928.33
2019-03-22T02:38:11.737Z,928.35
2019-03-22T02:38:24.745Z,928.35
2019-03-22T02:38:37.819Z,928.31
2019-03-22T02:38:50.442Z,928.29
2019-03-22T02:39:03.448Z,928.28
2019-03-22T02:39:16.583Z,928.3
2019-03-22T02:39:30.154Z,928.29
2019-03-22T02:39:44.066Z,928.31
2019-03-22T02:39:57.335Z,928.33
2019-03-22T02:40:10.844Z,928.34
2019-03-22T02:40:24.015Z,928.29
2019-03-22T02:40:37.068Z,928.31
2019-03-22T02:40:49.699Z,928.31
2019-03-22T02:41:02.792Z,928.32
2019-03-22T02:41:16.082Z,928.34
2019-03-22T02:41:29.223Z,928.32
2019-03-22T02:41:41.856Z,928.29
2019-03-22T02:41:54.885Z,928.29
2019-03-22T02:42:07.987Z,928.29
2019-03-22T02:42:21.015Z,928.29
2019-03-22T02:42:34.058Z,928.32
2019-03-22T02:42:47.078Z,928.3
2019-03-22T02:43:00.040Z,928.3
2019-03-22T02:43:12.109Z,928.29
2019-03-22T02:43:25.125Z,928.33
2019-03-22T02:43:38.201Z,928.39
2019-03-22T02:43:50.810Z,928.3
2019-03-22T02:44:05.002Z,928.31